Time;durP1;ratioP1;P1;durP2;ratioP2;P2;SDS_P1;SDS_P2;PMS_P1;PMS_P2;Temp;Humidity;BMP_temperature;BMP_pressure;BME280_temperature;BME280_humidity;BME280_pressure;Samples;Min_cycle;Max_cycle;Signal;HPM_P1;HPM_P2
2021/01/24 00:00:50;;;;;;;34.35;16.97;;;;;;;3.32;80.92;96115.97;1797250;79;21190;-74
2021/01/24 00:03:17;;;;;;;32.48;19.30;;;;;;;3.26;80.15;96109.62;1788145;79;21052;-73
2021/01/24 00:05:44;;;;;;;42.80;23.47;;;;;;;3.21;80.67;96102.95;1785350;80;21150;-73
2021/01/24 00:08:12;;;;;;;39.55;23.05;;;;;;;3.21;80.42;96106.42;1785315;79;21011;-74
2021/01/24 00:10:39;;;;;;;37.00;20.85;;;;;;;3.25;80.42;96110.70;1784477;80;21072;-74
2021/01/24 00:13:05;;;;;;;41.42;25.02;;;;;;;3.32;81.21;96105.80;1785217;79;21196;-74
2021/01/24 00:15:31;;;;;;;40.28;22.05;;;;;;;3.32;81.61;96099.91;1785167;80;21154;-74
2021/01/24 00:17:57;;;;;;;44.08;21.85;;;;;;;3.35;81.26;96098.03;1785281;79;21206;-74
2021/01/24 00:20:23;;;;;;;42.98;25.02;;;;;;;3.37;81.15;96097.20;1785275;80;21121;-74
2021/01/24 00:22:49;;;;;;;47.17;26.00;;;;;;;3.33;81.56;96086.81;1785185;79;21389;-74
2021/01/24 00:25:17;;;;;;;53.02;27.20;;;;;;;3.25;82.76;96080.72;1785365;79;21310;-74
2021/01/24 00:27:44;;;;;;;51.98;27.55;;;;;;;3.28;81.40;96080.69;1785116;79;21098;-74
2021/01/24 00:30:11;;;;;;;54.90;27.05;;;;;;;3.25;80.64;96081.26;1785326;79;21098;-74
2021/01/24 00:32:38;;;;;;;50.98;26.25;;;;;;;3.20;80.60;96079.95;1785205;79;21150;-74
2021/01/24 00:35:07;;;;;;;48.52;24.10;;;;;;;3.18;80.49;96086.92;1785292;80;21117;-74
2021/01/24 00:37:33;;;;;;;50.33;27.25;;;;;;;3.21;80.33;96086.89;1754971;80;26599;-74
2021/01/24 00:39:59;;;;;;;48.23;25.40;;;;;;;3.27;80.32;96080.43;1785129;79;21138;-74
2021/01/24 00:42:25;;;;;;;45.52;25.55;;;;;;;3.27;81.40;96084.45;1785300;80;21503;-74
2021/01/24 00:44:51;;;;;;;46.83;25.75;;;;;;;3.25;80.71;96075.36;1785213;79;21015;-74
2021/01/24 00:47:18;;;;;;;54.60;25.90;;;;;;;3.27;81.25;96086.58;1785225;80;21409;-74
2021/01/24 00:49:44;;;;;;;48.23;26.65;;;;;;;3.22;81.13;96080.45;1785290;79;22024;-74
2021/01/24 00:52:11;;;;;;;101.80;47.88;;;;;;;3.18;81.61;96074.88;1785214;79;21415;-74
2021/01/24 00:54:37;;;;;;;58.85;31.55;;;;;;;3.19;81.92;96073.80;1785313;79;21094;-74
2021/01/24 00:57:04;;;;;;;65.75;31.97;;;;;;;3.22;81.45;96076.44;1785208;80;21173;-74
2021/01/24 00:59:30;;;;;;;68.65;31.10;;;;;;;3.22;81.48;96059.84;1785251;79;21032;-74
2021/01/24 01:01:57;;;;;;;62.20;30.57;;;;;;;3.17;82.28;96058.56;1785656;79;21275;-74
2021/01/24 01:04:23;;;;;;;61.88;31.45;;;;;;;3.15;81.41;96055.34;1780740;79;21146;-74
2021/01/24 01:06:50;;;;;;;63.65;31.80;;;;;;;3.15;81.57;96057.22;1780786;80;21062;-74
2021/01/24 01:09:16;;;;;;;66.28;35.65;;;;;;;3.20;81.18;96049.16;1780787;79;21118;-74
2021/01/24 01:11:43;;;;;;;67.60;35.13;;;;;;;3.24;81.06;96043.50;1780809;80;21736;-74
2021/01/24 01:14:09;;;;;;;71.33;34.63;;;;;;;3.26;80.99;96041.36;1780737;79;21180;-74
2021/01/24 01:16:35;;;;;;;52.38;31.30;;;;;;;3.29;80.79;96046.94;1780757;80;21118;-74
2021/01/24 01:19:01;;;;;;;45.63;26.42;;;;;;;3.32;80.61;96040.22;1762170;81;21045;-74
2021/01/24 01:21:27;;;;;;;67.58;31.50;;;;;;;3.35;80.54;96045.03;1780761;80;21137;-74
2021/01/24 01:23:53;;;;;;;48.78;27.10;;;;;;;3.40;80.51;96044.97;1762267;80;21513;-74
2021/01/24 01:26:20;;;;;;;32.35;20.02;;;;;;;3.38;80.86;96051.95;1780856;80;21245;-75
2021/01/24 01:28:46;;;;;;;37.80;20.88;;;;;;;3.32;81.47;96032.98;1762115;80;21497;-74
2021/01/24 01:31:12;;;;;;;38.98;21.55;;;;;;;3.37;81.10;96033.48;1780768;80;21130;-74
2021/01/24 01:33:38;;;;;;;42.13;22.90;;;;;;;3.37;81.91;96032.16;1762139;80;21502;-74
2021/01/24 01:36:05;;;;;;;55.20;28.15;;;;;;;3.30;81.53;96032.47;1780792;80;21119;-74
2021/01/24 01:38:32;;;;;;;51.05;26.60;;;;;;;3.28;81.40;96029.83;1762154;81;21312;-74
2021/01/24 01:40:58;;;;;;;56.08;30.37;;;;;;;3.26;81.07;96025.30;1780716;80;21566;-74
2021/01/24 01:43:24;;;;;;;58.75;31.12;;;;;;;3.22;81.55;96019.69;1762191;80;21088;-74
2021/01/24 01:45:50;;;;;;;56.45;30.70;;;;;;;3.19;81.62;96013.58;1780732;80;21115;-74
2021/01/24 01:48:18;;;;;;;54.50;29.35;;;;;;;3.11;82.07;96005.60;1762166;81;21112;-74
2021/01/24 01:50:45;;;;;;;67.72;33.73;;;;;;;3.09;81.76;96003.75;1780748;80;21357;-74
2021/01/24 01:53:11;;;;;;;67.60;35.70;;;;;;;3.06;81.74;96002.95;1762075;81;21450;-74
2021/01/24 01:55:37;;;;;;;62.58;35.80;;;;;;;3.11;81.45;96002.13;1780771;80;21122;-74
2021/01/24 01:58:03;;;;;;;66.45;33.95;;;;;;;3.14;81.30;95998.88;1762118;80;21064;-74
2021/01/24 02:00:29;;;;;;;66.35;34.20;;;;;;;3.19;81.14;95999.39;1762162;81;21127;-74
2021/01/24 02:03:37;;;;;;;69.50;40.48;;;;;;;3.21;81.48;95998.02;1780595;79;21249;-74
2021/01/24 02:06:32;;;;;;;63.73;30.92;;;;;;;3.13;82.29;95994.61;1780790;80;21135;-74
2021/01/24 02:09:10;;;;;;;52.67;27.10;;;;;;;3.10;81.32;96006.69;1780761;79;21515;-74
2021/01/24 02:11:50;;;;;;;61.20;31.45;;;;;;;2.98;81.13;96003.56;1780612;80;21114;-75
2021/01/24 02:14:29;;;;;;;49.50;27.60;;;;;;;2.93;81.74;95998.27;1780586;79;21476;-74
2021/01/24 02:16:56;;;;;;;49.75;28.85;;;;;;;2.95;82.21;95996.09;1780867;80;21122;-74
2021/01/24 02:19:44;;;;;;;92.50;46.45;;;;;;;2.96;82.28;95995.56;1780763;79;21428;-73
2021/01/24 02:22:10;;;;;;;73.22;34.63;;;;;;;2.94;82.35;95997.19;1780297;80;21090;-74
2021/01/24 02:24:40;;;;;;;61.83;34.20;;;;;;;2.93;82.26;95993.45;1756492;80;21114;-74
2021/01/24 02:27:14;;;;;;;67.27;35.40;;;;;;;2.98;81.86;95993.39;1780787;80;21083;-74
2021/01/24 02:30:07;;;;;;;73.70;41.60;;;;;;;3.02;81.58;95993.91;1780703;79;21256;-74
2021/01/24 02:32:33;;;;;;;74.30;39.42;;;;;;;3.04;81.65;95992.28;1760582;80;21534;-74
2021/01/24 02:35:00;;;;;;;54.65;31.17;;;;;;;3.01;82.00;95989.64;1780747;79;21159;-74
2021/01/24 02:37:26;;;;;;;66.02;35.43;;;;;;;2.97;82.15;95991.80;1762150;81;21127;-74
2021/01/24 02:39:52;;;;;;;51.60;30.05;;;;;;;2.95;82.18;95985.40;1780744;79;21016;-74
2021/01/24 02:42:18;;;;;;;61.08;33.60;;;;;;;2.92;82.89;95980.62;1762194;81;22143;-74
2021/01/24 02:44:45;;;;;;;64.85;34.85;;;;;;;2.94;82.31;95977.12;1780680;79;21135;-74
2021/01/24 02:47:11;;;;;;;51.15;31.02;;;;;;;2.94;82.62;95973.64;1762201;81;21115;-74
2021/01/24 02:49:37;;;;;;;59.33;31.12;;;;;;;2.97;82.49;95975.75;1782220;80;21122;-74
2021/01/24 02:52:04;;;;;;;61.30;32.10;;;;;;;2.94;82.84;95963.74;1762222;81;21532;-74
2021/01/24 02:54:31;;;;;;;68.52;34.03;;;;;;;2.93;82.03;95973.39;1780690;79;21219;-74
2021/01/24 02:56:57;;;;;;;76.75;40.35;;;;;;;2.96;81.95;95971.48;1762099;81;21136;-74
2021/01/24 02:59:23;;;;;;;80.92;41.23;;;;;;;2.96;81.85;95972.81;1762165;81;21142;-74
2021/01/24 03:01:49;;;;;;;60.05;31.75;;;;;;;2.98;81.95;95966.10;1780608;80;21158;-74
2021/01/24 03:04:15;;;;;;;65.70;34.78;;;;;;;3.05;81.98;95957.75;1760294;80;21084;-74
2021/01/24 03:06:41;;;;;;;59.93;30.12;;;;;;;3.08;81.87;95963.90;1759705;81;21956;-74
2021/01/24 03:09:08;;;;;;;53.42;26.20;;;;;;;3.00;81.24;95967.98;1759654;81;21414;-74
2021/01/24 03:11:37;;;;;;;64.80;33.25;;;;;;;2.89;81.18;95967.78;1759735;81;21136;-74
2021/01/24 03:14:12;;;;;;;;;;;;;;;2.85;81.20;95966.77;1762251;81;21145;-74
2021/01/24 03:16:38;;;;;;;61.80;34.00;;;;;;;2.86;82.00;95961.66;1757114;81;20234;-74
2021/01/24 03:19:05;;;;;;;68.02;34.58;;;;;;;2.90;81.83;95957.34;1766795;80;21203;-74
2021/01/24 03:21:31;;;;;;;65.95;35.48;;;;;;;2.95;81.74;95954.63;1777968;80;21079;-73
2021/01/24 03:23:58;;;;;;;70.17;36.77;;;;;;;3.00;81.94;95952.47;1777983;79;21079;-73
2021/01/24 03:26:24;;;;;;;60.65;33.05;;;;;;;3.05;81.89;95947.84;1778153;80;21508;-73
2021/01/24 03:28:50;;;;;;;67.00;39.60;;;;;;;3.14;81.93;95936.53;1778140;79;21008;-73
2021/01/24 03:31:17;;;;;;;58.13;31.68;;;;;;;3.16;81.79;95943.73;1778142;80;21142;-73
2021/01/24 03:33:43;;;;;;;51.83;29.25;;;;;;;3.11;81.71;95932.01;1778063;79;21137;-73
2021/01/24 03:36:09;;;;;;;46.55;24.35;;;;;;;3.13;81.65;95932.27;1778195;80;21138;-73
2021/01/24 03:38:35;;;;;;;107.92;57.90;;;;;;;3.11;81.52;95926.66;1778139;79;21092;-73
2021/01/24 03:41:02;;;;;;;62.93;37.17;;;;;;;3.11;81.67;95928.53;1778210;80;21534;-73
2021/01/24 03:43:28;;;;;;;52.62;30.77;;;;;;;3.03;82.52;95921.12;1778029;79;22060;-74
2021/01/24 03:45:54;;;;;;;65.50;36.08;;;;;;;2.92;82.75;95919.09;1778061;80;21150;-73
2021/01/24 03:48:20;;;;;;;63.73;34.50;;;;;;;2.86;83.00;95915.39;1778059;79;21035;-73
2021/01/24 03:50:48;;;;;;;67.30;35.50;;;;;;;2.78;83.38;95914.91;1778091;80;21150;-73
2021/01/24 03:53:14;;;;;;;59.80;33.00;;;;;;;2.74;83.02;95921.13;1778124;79;21027;-74
2021/01/24 03:55:40;;;;;;;64.47;32.17;;;;;;;2.68;84.62;95921.69;1778185;80;22129;-74
2021/01/24 03:58:07;;;;;;;55.88;33.85;;;;;;;2.67;84.01;95918.77;1778097;79;21047;-74
2021/01/24 04:00:33;;;;;;;50.28;30.50;;;;;;;2.72;83.54;95919.24;1778110;80;21166;-74
2021/01/24 04:02:59;;;;;;;45.67;25.82;;;;;;;2.72;83.73;95920.04;1778417;79;21219;-74
2021/01/24 04:05:25;;;;;;;68.22;44.85;;;;;;;2.77;83.30;95917.88;1785386;80;21066;-74
2021/01/24 04:07:51;;;;;;;44.30;26.65;;;;;;;2.81;83.89;95913.00;1785195;79;21256;-74
2021/01/24 04:10:17;;;;;;;49.42;25.65;;;;;;;2.88;84.12;95903.86;1785227;80;21520;-74
2021/01/24 04:12:44;;;;;;;42.80;24.20;;;;;;;2.90;83.55;95908.39;1785330;79;21142;-74
2021/01/24 04:15:11;;;;;;;53.23;27.82;;;;;;;2.98;83.21;95903.77;1785331;80;21424;-74
2021/01/24 04:17:37;;;;;;;47.88;27.27;;;;;;;3.03;82.98;95911.21;1785345;79;21082;-74
2021/01/24 04:20:04;;;;;;;58.65;34.67;;;;;;;3.08;82.71;95905.03;1785221;80;21259;-74
2021/01/24 04:22:31;;;;;;;62.38;33.92;;;;;;;3.03;82.62;95893.82;1785142;80;21455;-74
2021/01/24 04:24:57;;;;;;;52.65;30.17;;;;;;;2.99;82.70;95890.13;1785294;79;21157;-74
2021/01/24 04:27:23;;;;;;;57.65;32.67;;;;;;;2.98;82.50;95889.84;1785264;80;21160;-74
2021/01/24 04:29:49;;;;;;;50.75;29.52;;;;;;;2.98;82.33;95887.17;1785187;79;21055;-74
2021/01/24 04:32:15;;;;;;;79.12;38.53;;;;;;;2.93;81.94;95875.20;1785265;80;21178;-74
2021/01/24 04:34:41;;;;;;;57.25;32.50;;;;;;;2.87;82.36;95873.64;1785188;79;21545;-74
2021/01/24 04:37:08;;;;;;;58.08;29.87;;;;;;;2.88;82.14;95886.47;1785307;80;21121;-74
2021/01/24 04:39:34;;;;;;;58.02;28.95;;;;;;;2.87;82.21;95883.55;1785195;79;21115;-74
2021/01/24 04:42:00;;;;;;;62.27;31.40;;;;;;;2.89;82.21;95893.42;1785253;80;21099;-74
2021/01/24 04:44:26;;;;;;;49.18;27.32;;;;;;;2.89;82.09;95887.53;1785271;79;21106;-74
2021/01/24 04:46:52;;;;;;;51.50;27.07;;;;;;;2.91;82.78;95892.08;1785160;80;21145;-74
2021/01/24 04:49:19;;;;;;;56.85;32.58;;;;;;;2.88;82.72;95882.46;1785184;79;21424;-74
2021/01/24 04:51:45;;;;;;;106.50;53.87;;;;;;;2.85;83.29;95876.35;1756777;80;21110;-74
2021/01/24 04:54:11;;;;;;;63.68;35.73;;;;;;;2.77;84.02;95875.88;1785277;79;21067;-74
2021/01/24 04:56:41;;;;;;;54.58;30.48;;;;;;;2.74;82.58;95879.66;1785203;80;21188;-74
2021/01/24 04:59:07;;;;;;;58.38;29.95;;;;;;;2.65;82.30;95875.98;1785146;79;21102;-75
2021/01/24 05:01:36;;;;;;;59.65;33.25;;;;;;;2.53;82.18;95874.48;1785240;80;21150;-74
2021/01/24 05:04:02;;;;;;;52.23;31.17;;;;;;;2.48;82.31;95873.73;1783701;79;21114;-74
2021/01/24 05:06:28;;;;;;;56.25;32.35;;;;;;;2.39;83.69;95858.02;1780799;80;21098;-74
2021/01/24 05:09:00;;;;;;;53.28;31.65;;;;;;;2.39;83.28;95852.66;1780708;79;21194;-74
2021/01/24 05:11:27;;;;;;;50.00;30.17;;;;;;;2.43;83.05;95851.84;1780725;80;21082;-74
2021/01/24 05:13:53;;;;;;;50.10;28.73;;;;;;;2.40;83.33;95838.25;1780807;79;21158;-74
2021/01/24 05:16:23;;;;;;;51.95;27.27;;;;;;;2.43;83.41;95837.14;1780780;80;21118;-74
2021/01/24 05:18:56;;;;;;;82.35;47.50;;;;;;;2.46;83.41;95832.56;1780719;79;21027;-73
2021/01/24 05:21:27;;;;;;;66.92;38.70;;;;;;;2.44;84.47;95836.06;1780871;80;21221;-74
2021/01/24 05:23:54;;;;;;;51.55;30.32;;;;;;;2.49;83.59;95844.59;1756870;80;21125;-74
2021/01/24 05:26:20;;;;;;;59.93;33.25;;;;;;;2.54;83.38;95837.84;1780776;80;21107;-74
2021/01/24 05:28:47;;;;;;;62.58;33.23;;;;;;;2.59;83.24;95842.36;1780723;79;21431;-74
2021/01/24 05:31:14;;;;;;;65.90;37.03;;;;;;;2.62;83.15;95839.91;1780872;80;21111;-74
2021/01/24 05:33:44;;;;;;;69.58;36.35;;;;;;;2.61;83.16;95845.54;1780715;79;21191;-74
2021/01/24 05:36:10;;;;;;;73.72;40.00;;;;;;;2.54;82.76;95848.53;1780694;80;21106;-74
2021/01/24 05:38:36;;;;;;;90.32;52.00;;;;;;;2.40;83.43;95850.28;1780754;79;21143;-74
2021/01/24 05:41:11;;;;;;;101.25;58.80;;;;;;;2.28;83.03;95847.95;1780771;80;21129;-74
2021/01/24 05:43:44;;;;;;;90.15;50.08;;;;;;;2.22;83.43;95842.38;1762152;81;21117;-74
2021/01/24 05:46:11;;;;;;;86.20;46.00;;;;;;;2.19;83.63;95841.06;1780722;80;21190;-74
2021/01/24 05:48:47;;;;;;;87.12;48.33;;;;;;;2.16;83.62;95844.84;1762067;80;21104;-74
2021/01/24 05:51:14;;;;;;;82.50;46.30;;;;;;;2.10;85.05;95844.08;1738471;81;21536;-74
2021/01/24 05:53:43;;;;;;;66.45;41.88;;;;;;;2.14;83.75;95844.34;1780705;79;21015;-74
2021/01/24 05:56:19;;;;;;;63.98;32.13;;;;;;;2.20;83.98;95839.19;1736921;81;21116;-74
2021/01/24 05:58:45;;;;;;;62.40;31.70;;;;;;;2.21;84.01;95840.24;1780709;79;21474;-74
2021/01/24 06:01:12;;;;;;;62.70;33.45;;;;;;;2.16;83.81;95850.98;1762215;81;21116;-74
2021/01/24 06:03:38;;;;;;;67.72;39.08;;;;;;;2.17;83.42;95847.77;1780650;79;21531;-74
2021/01/24 06:06:04;;;;;;;67.55;39.10;;;;;;;2.13;83.67;95848.05;1762282;81;21131;-74
2021/01/24 06:08:31;;;;;;;57.78;33.18;;;;;;;2.09;83.09;95847.83;1762149;81;21033;-74
2021/01/24 06:11:00;;;;;;;50.00;27.30;;;;;;;2.01;83.03;95841.73;1780690;80;21191;-74
2021/01/24 06:13:27;;;;;;;51.40;29.87;;;;;;;1.87;82.69;95840.21;1762076;81;21100;-74
2021/01/24 06:15:57;;;;;;;56.75;31.45;;;;;;;1.78;82.72;95845.08;1780758;80;21090;-74
2021/01/24 06:18:32;;;;;;;53.65;30.57;;;;;;;1.77;82.93;95831.47;1761211;81;21155;-74
2021/01/24 06:21:02;;;;;;;53.28;28.20;;;;;;;1.81;82.96;95831.20;1780740;80;21043;-74
2021/01/24 06:23:36;;;;;;;48.63;28.50;;;;;;;1.81;83.59;95829.86;1762191;80;21243;-74
2021/01/24 06:26:12;;;;;;;48.42;27.37;;;;;;;1.85;83.66;95830.89;1762258;81;21462;-74
2021/01/24 06:28:41;;;;;;;42.50;23.95;;;;;;;1.88;83.74;95832.99;1762220;80;21104;-74
2021/01/24 06:31:17;;;;;;;41.90;25.57;;;;;;;1.90;85.01;95825.53;1762139;81;21089;-74
2021/01/24 06:33:49;;;;;;;48.40;27.05;;;;;;;1.93;84.29;95820.41;1762159;80;21536;-74
2021/01/24 06:36:15;;;;;;;49.93;27.60;;;;;;;1.99;84.10;95822.52;1762030;81;21505;-74
2021/01/24 06:38:43;;;;;;;44.90;27.85;;;;;;;2.00;83.72;95828.66;1762066;80;21024;-74
2021/01/24 06:41:14;;;;;;;58.93;30.57;;;;;;;1.96;83.80;95836.42;1762369;81;21089;-74
2021/01/24 06:43:47;;;;;;;59.95;34.13;;;;;;;1.97;84.53;95832.16;1762081;80;21127;-74
2021/01/24 06:46:35;;;;;;;53.55;27.10;;;;;;;1.97;85.10;95828.69;1762167;81;21148;-74
2021/01/24 06:49:01;;;;;;;44.00;23.18;;;;;;;1.96;84.23;95830.53;1762525;80;21250;-74
2021/01/24 06:51:42;;;;;;;47.15;25.88;;;;;;;1.86;83.39;95823.93;1762082;81;21132;-73
2021/01/24 06:54:21;;;;;;;52.73;27.98;;;;;;;1.83;83.44;95815.69;1762094;80;21061;-75
2021/01/24 06:56:48;;;;;;;74.15;40.90;;;;;;;1.82;83.46;95818.10;1762140;81;21065;-74
2021/01/24 06:59:14;;;;;;;51.35;31.87;;;;;;;1.89;83.67;95825.27;1762220;80;21068;-74
2021/01/24 07:01:42;;;;;;;49.60;27.52;;;;;;;1.89;85.43;95823.94;1762132;81;21198;-74
2021/01/24 07:04:28;;;;;;;138.60;65.25;;;;;;;1.97;84.09;95834.83;1761269;80;21036;-74
2021/01/24 07:06:57;;;;;;;57.13;30.85;;;;;;;2.00;84.65;95839.34;1750612;81;21121;-74
2021/01/24 07:09:27;;;;;;;;;;;;;;;2.02;85.26;95837.98;1753207;80;21053;-74
2021/01/24 07:11:58;;;;;;;68.40;44.15;;;;;;;2.02;85.69;95831.84;1750637;82;20273;-73
2021/01/24 07:14:42;;;;;;;77.20;50.40;;;;;;;2.06;84.98;95839.58;1750550;80;21196;-74
2021/01/24 07:17:10;;;;;;;64.82;36.33;;;;;;;2.12;84.57;95845.13;1750689;81;21482;-74
2021/01/24 07:19:53;;;;;;;56.00;36.50;;;;;;;2.23;84.23;95847.47;1750900;80;21506;-74
2021/01/24 07:22:24;;;;;;;56.83;32.00;;;;;;;2.23;84.23;95847.47;1721616;82;21790;-74
2021/01/24 07:24:52;;;;;;;63.58;38.20;;;;;;;2.23;84.00;95848.80;1750548;80;21410;-75
2021/01/24 07:27:20;;;;;;;62.53;35.58;;;;;;;2.18;84.81;95849.37;1750579;81;21128;-74
2021/01/24 07:29:46;;;;;;;63.53;35.47;;;;;;;2.21;84.37;95851.47;1750728;80;21136;-74
2021/01/24 07:32:17;;;;;;;57.73;32.03;;;;;;;2.21;84.48;95856.28;1750605;82;21572;-74
2021/01/24 07:34:45;;;;;;;49.42;28.77;;;;;;;2.27;84.30;95858.38;1750643;80;21124;-74
2021/01/24 07:37:14;;;;;;;48.90;29.32;;;;;;;2.35;84.07;95866.34;1750716;82;21077;-74
2021/01/24 07:39:41;;;;;;;47.93;29.82;;;;;;;2.43;83.97;95880.45;1750674;80;21796;-74
2021/01/24 07:42:08;;;;;;;48.55;27.95;;;;;;;2.50;83.87;95887.08;1750529;82;21506;-73
2021/01/24 07:44:34;;;;;;;47.13;28.57;;;;;;;2.55;84.15;95899.59;1750516;80;21187;-73
2021/01/24 07:47:00;;;;;;;42.43;27.90;;;;;;;2.54;84.14;95911.37;1750570;82;21164;-73
2021/01/24 07:49:26;;;;;;;54.15;32.75;;;;;;;2.57;84.06;95914.05;1750691;80;21474;-73
2021/01/24 07:51:53;;;;;;;45.38;28.55;;;;;;;2.64;84.08;95918.50;1750674;81;21209;-73
2021/01/24 07:54:19;;;;;;;55.88;32.65;;;;;;;2.68;83.72;95915.01;1750493;80;21530;-73
2021/01/24 07:56:45;;;;;;;46.08;26.23;;;;;;;2.59;85.52;95910.00;1721101;82;21136;-73
2021/01/24 07:59:12;;;;;;;49.77;30.92;;;;;;;2.59;85.54;95915.89;1750589;80;21426;-73
2021/01/24 08:01:38;;;;;;;47.60;26.60;;;;;;;2.54;86.12;95923.39;1750653;81;21128;-73
2021/01/24 08:04:05;;;;;;;47.40;29.32;;;;;;;2.49;86.28;95919.45;1721044;82;21199;-73
2021/01/24 08:06:33;;;;;;;44.65;23.20;;;;;;;2.58;85.52;95918.31;1758755;80;21037;-73
2021/01/24 08:09:00;;;;;;;42.08;25.43;;;;;;;2.66;84.99;95926.53;1759463;80;21100;-74
2021/01/24 08:11:27;;;;;;;43.70;23.70;;;;;;;2.75;84.74;95923.51;1759908;81;21080;-74
2021/01/24 08:13:53;;;;;;;38.13;21.97;;;;;;;2.83;84.54;95926.92;1759823;80;21120;-75
2021/01/24 08:16:26;;;;;;;37.83;20.23;;;;;;;2.90;84.36;95928.45;1759915;81;21931;-74
2021/01/24 08:18:52;;;;;;;39.58;20.68;;;;;;;2.95;84.08;95931.09;1759122;81;21036;-74
2021/01/24 08:21:19;;;;;;;33.92;17.42;;;;;;;2.93;83.99;95927.37;1759146;81;21060;-74
2021/01/24 08:23:45;;;;;;;30.08;18.32;;;;;;;2.95;84.08;95932.43;1759769;80;21485;-74
2021/01/24 08:26:12;;;;;;;37.75;20.45;;;;;;;3.02;83.95;95932.91;1759831;81;21053;-74
2021/01/24 08:28:41;;;;;;;36.75;22.07;;;;;;;3.08;83.89;95941.16;1759800;80;21510;-74
2021/01/24 08:31:07;;;;;;;35.30;19.60;;;;;;;3.12;83.70;95942.17;1759318;81;21100;-74
2021/01/24 08:33:33;;;;;;;36.63;19.45;;;;;;;3.11;83.20;95942.71;1759793;80;21131;-74
2021/01/24 08:36:22;;;;;;;36.83;18.42;;;;;;;3.06;83.36;95945.42;1709862;81;21032;-74
2021/01/24 08:38:49;;;;;;;38.55;18.57;;;;;;;2.97;83.89;95944.44;1759821;80;21034;-74
2021/01/24 08:41:16;;;;;;;34.88;18.52;;;;;;;3.00;83.36;95948.45;1759783;81;21477;-75
2021/01/24 08:43:43;;;;;;;32.70;18.67;;;;;;;3.01;83.19;95944.16;1759682;80;21127;-74
2021/01/24 08:46:26;;;;;;;32.00;18.62;;;;;;;3.07;83.12;95950.23;1759875;81;21498;-74
2021/01/24 08:49:10;;;;;;;32.98;17.37;;;;;;;3.10;83.00;95951.03;1759816;80;21030;-73
2021/01/24 08:51:43;;;;;;;30.17;18.00;;;;;;;3.14;83.32;95960.62;1759554;81;21072;-74
2021/01/24 08:54:18;;;;;;;30.48;17.48;;;;;;;3.13;83.17;95970.53;1759841;80;21910;-74
2021/01/24 08:56:44;;;;;;;34.18;18.77;;;;;;;3.14;83.29;95969.44;1759740;81;21105;-73
2021/01/24 08:59:19;;;;;;;25.48;17.05;;;;;;;3.06;83.91;95974.06;1759768;80;21025;-73
2021/01/24 09:01:47;;;;;;;27.80;17.30;;;;;;;3.05;83.92;95975.94;1759749;81;21557;-74
2021/01/24 09:04:29;;;;;;;30.90;17.60;;;;;;;3.02;83.81;95971.16;1759822;80;21477;-74
2021/01/24 09:07:04;;;;;;;33.70;18.07;;;;;;;2.95;84.53;95973.91;1759843;81;21233;-74
2021/01/24 09:09:30;;;;;;;38.88;21.48;;;;;;;3.01;83.84;95973.58;1759842;80;21036;-74
2021/01/24 09:11:57;;;;;;;40.90;21.17;;;;;;;3.05;83.87;95973.27;1759866;81;21207;-74
2021/01/24 09:14:23;;;;;;;32.83;16.95;;;;;;;3.08;83.80;95971.93;1759751;80;21124;-74
2021/01/24 09:17:06;;;;;;;31.55;18.10;;;;;;;3.03;84.14;95966.06;1759773;81;21024;-74
2021/01/24 09:19:35;;;;;;;52.65;31.05;;;;;;;3.13;83.46;95967.84;1759793;80;21206;-74
2021/01/24 09:22:01;;;;;;;35.30;22.32;;;;;;;3.33;83.17;95974.88;1759773;81;21101;-74
2021/01/24 09:24:28;;;;;;;30.72;17.57;;;;;;;3.42;83.20;95971.88;1759730;80;21444;-74
2021/01/24 09:26:54;;;;;;;32.50;21.15;;;;;;;3.52;83.06;95975.78;1759816;81;21120;-74
2021/01/24 09:29:20;;;;;;;38.55;21.65;;;;;;;3.67;82.87;95976.96;1759870;80;21497;-74
2021/01/24 09:31:46;;;;;;;33.63;18.98;;;;;;;3.79;82.78;95981.11;1759733;81;21253;-74
2021/01/24 09:34:12;;;;;;;33.35;17.70;;;;;;;3.78;82.26;95978.98;1759700;80;21024;-74
2021/01/24 09:36:38;;;;;;;32.70;18.10;;;;;;;3.79;82.25;95979.77;1759723;81;21037;-74
2021/01/24 09:39:05;;;;;;;39.27;24.15;;;;;;;3.85;81.97;95982.11;1759750;80;21069;-74
2021/01/24 09:41:31;;;;;;;50.92;28.05;;;;;;;3.96;82.09;95980.10;1759810;81;21045;-74
2021/01/24 09:43:59;;;;;;;36.98;21.73;;;;;;;4.12;82.07;95987.42;1759779;80;22105;-74
2021/01/24 09:46:25;;;;;;;253.45;135.20;;;;;;;4.33;82.11;95985.26;1759757;81;21113;-74
2021/01/24 09:48:51;;;;;;;45.12;28.57;;;;;;;4.48;81.91;95983.72;1759826;80;21053;-74
2021/01/24 09:51:18;;;;;;;32.35;18.20;;;;;;;4.54;81.43;95987.92;1759813;81;21049;-74
2021/01/24 09:53:56;;;;;;;15.43;8.45;;;;;;;4.57;80.90;95983.31;1759751;80;21092;-74
2021/01/24 09:56:22;;;;;;;23.07;10.88;;;;;;;4.65;80.51;95979.98;1759783;81;21213;-74
2021/01/24 09:58:48;;;;;;;19.60;8.68;;;;;;;4.71;80.11;95979.37;1759682;80;21422;-74
2021/01/24 10:01:15;;;;;;;26.30;12.58;;;;;;;4.73;79.82;95981.21;1759808;81;21084;-74
2021/01/24 10:03:41;;;;;;;27.40;15.18;;;;;;;4.65;80.14;95989.91;1759688;80;21069;-74
2021/01/24 10:06:08;;;;;;;31.37;16.87;;;;;;;4.62;80.01;95995.33;1754986;81;21081;-74
2021/01/24 10:08:34;;;;;;;25.35;14.38;;;;;;;4.67;79.84;95989.08;1750636;80;21470;-74
2021/01/24 10:11:00;;;;;;;21.90;12.98;;;;;;;4.64;78.98;95986.44;1750547;82;21061;-74
2021/01/24 10:13:27;;;;;;;26.57;15.40;;;;;;;4.68;77.87;95989.32;1750641;80;21109;-74
2021/01/24 10:15:53;;;;;;;87.67;43.13;;;;;;;4.66;78.11;95992.84;1750640;81;21156;-74
2021/01/24 10:18:20;;;;;;;42.23;22.07;;;;;;;4.68;78.12;95992.80;1750646;80;21514;-74
2021/01/24 10:20:46;;;;;;;33.85;18.25;;;;;;;4.69;78.53;95987.69;1750694;82;21243;-74
2021/01/24 10:23:13;;;;;;;41.05;22.32;;;;;;;4.73;77.42;95984.69;1750614;80;21062;-74
2021/01/24 10:25:39;;;;;;;16.85;9.58;;;;;;;4.77;78.23;95993.73;1750593;81;21085;-74
2021/01/24 10:28:05;;;;;;;12.82;8.05;;;;;;;4.75;77.16;95989.76;1750607;80;21065;-74
2021/01/24 10:30:31;;;;;;;21.97;13.48;;;;;;;4.78;77.37;95992.64;1750684;82;21411;-74
2021/01/24 10:32:58;;;;;;;20.72;9.88;;;;;;;4.76;77.05;95990.01;1750654;80;21308;-74
2021/01/24 10:35:24;;;;;;;45.00;15.78;;;;;;;4.78;76.51;95995.33;1750570;82;21592;-74
2021/01/24 10:37:50;;;;;;;15.30;8.63;;;;;;;4.75;76.11;96001.83;1750675;80;21533;-75
2021/01/24 10:40:17;;;;;;;16.52;11.22;;;;;;;4.71;75.65;96002.17;1750681;82;21096;-74
2021/01/24 10:42:43;;;;;;;14.40;9.40;;;;;;;4.71;75.53;96011.02;1750705;80;21532;-74
2021/01/24 10:45:10;;;;;;;11.97;7.40;;;;;;;4.77;76.22;96009.84;1750630;82;21242;-74
2021/01/24 10:47:36;;;;;;;14.07;8.83;;;;;;;4.87;75.90;96020.98;1750552;80;21117;-74
2021/01/24 10:50:05;;;;;;;16.17;9.55;;;;;;;4.94;75.54;96025.97;1750606;82;21144;-74
2021/01/24 10:52:31;;;;;;;16.32;9.10;;;;;;;5.01;75.46;96025.85;1721334;82;21097;-74
2021/01/24 10:54:57;;;;;;;14.00;9.30;;;;;;;5.18;75.84;96019.16;1750616;82;21541;-73
2021/01/24 10:57:23;;;;;;;142.00;43.75;;;;;;;5.38;75.77;96026.87;1750564;81;21267;-72
2021/01/24 10:59:49;;;;;;;17.10;8.70;;;;;;;5.52;74.58;96022.88;1750514;80;21041;-72
2021/01/24 11:02:16;;;;;;;16.62;11.53;;;;;;;5.48;75.07;96021.34;1750648;82;21113;-72
2021/01/24 11:04:42;;;;;;;23.52;12.33;;;;;;;5.42;73.95;96031.12;1750570;80;21034;-72
2021/01/24 11:07:08;;;;;;;38.78;16.97;;;;;;;5.50;74.88;96027.21;1764237;81;21406;-72
2021/01/24 11:09:35;;;;;;;44.13;31.33;;;;;;;5.53;75.29;96032.53;1767242;79;21184;-72
2021/01/24 11:12:01;;;;;;;22.55;14.50;;;;;;;5.47;74.14;96032.36;1767232;81;21044;-72
2021/01/24 11:14:28;;;;;;;21.62;12.13;;;;;;;5.36;74.32;96037.91;1767342;79;21036;-72
2021/01/24 11:16:54;;;;;;;11.80;7.42;;;;;;;5.37;74.31;96039.50;1767364;81;21112;-72
2021/01/24 11:19:20;;;;;;;18.23;11.03;;;;;;;5.17;72.20;96039.84;1767285;79;21072;-72
2021/01/24 11:21:46;;;;;;;89.17;59.18;;;;;;;5.15;73.21;96041.23;1767260;81;21508;-72
2021/01/24 11:24:12;;;;;;;21.23;17.40;;;;;;;5.11;73.12;96036.97;1767281;79;21033;-72
2021/01/24 11:26:39;;;;;;;17.17;12.50;;;;;;;5.11;72.89;96031.60;1767329;81;21072;-72
2021/01/24 11:29:05;;;;;;;20.35;10.85;;;;;;;5.15;73.46;96028.60;1767288;79;21508;-72
2021/01/24 11:31:32;;;;;;;12.15;6.22;;;;;;;5.14;71.95;96027.02;1767354;81;21037;-72